Accueil
METAR-TAF:

METAR-TAF

Aéroports :

Aéroport de Milaga

Tripoli, Libye

latitude: 32-54N, longitude: 13-17E, altitude: 11 m

Observation

Le bulletin a été fait il y a 23 minutes, à 20:50 UTC
Vent 10 kt de est
Température 27°C
Humidité 74%
Pression 1015 hPa
Visibilité: 7000 m
Ciel clair

METAR: HLLM 172050Z 09010KT 7000 SKC 27/22 Q1015

Heure: 23:13 (21:13 UTC)

Prévision

Le bulletin a été fait il y a 4 heures et 13 minutes, à 17:00 UTC
Prévision valable du 17 à 18 UTC au 18 à 18 UTC
Vent 12 kt de est
Visibilité 10 km ou plus
pas de nuages en-dessous de 1500 mètres et pas de cumulonimbus.
Evoluant progressivement
du 17 à 00 UTC au 18 à 02 UTC
Vent 2 kt de direction variable
Visibilité: 8000 m
Evoluant progressivement
du 18 à 06 UTC au 18 à 08 UTC
Vent 10 kt de est/nord-est

TAF: HLLM 171700Z 1718/1818 09012KT CAVOK BECMG 1700/1802 VRB02KT 8000 NSC BECMG 1806/1808 06010KT

Observations et prévisions météorologiques de plus de 4000 aéroports (messages METAR et TAF).

Les stations disponibles sont représentées par des disques jaunes et rouges sur la carte.

Passer la souris dessus pour voir le nom de la station.

Cliquer dessus pour voir les observations et prévisions météorologiques.

Pour changer de carte: cliquez sur les boutons verts avec une croix noire pour zoomer, sur le bouton vert avec un tiret pour effectuer un zoom arrière, ou sur les flèches vertes pour les cartes adjacentes.


METAR-TAF: